Time;durP1;ratioP1;P1;durP2;ratioP2;P2;SDS_P1;SDS_P2;PMS_P1;PMS_P2;Temp;Humidity;BMP_temperature;BMP_pressure;BME280_temperature;BME280_humidity;BME280_pressure;Samples;Min_cycle;Max_cycle;Signal;HPM_P1;HPM_P2
2021/06/12 00:01:12;;;;;;;5.68;4.10;;;17.50;99.90;;;;;;5030368;28;20030;-46
2021/06/12 00:03:39;;;;;;;5.05;3.90;;;17.70;99.90;;;;;;5035357;28;20033;-45
2021/06/12 00:06:05;;;;;;;5.35;4.85;;;17.80;99.90;;;;;;5034928;28;20032;-45
2021/06/12 00:08:31;;;;;;;7.57;5.00;;;17.60;99.90;;;;;;5035534;28;20022;-45
2021/06/12 00:10:57;;;;;;;6.40;4.85;;;17.70;99.90;;;;;;5035149;28;20469;-45
2021/06/12 00:13:24;;;;;;;6.40;5.38;;;17.80;99.90;;;;;;4984160;28;20119;-46
2021/06/12 00:15:50;;;;;;;7.32;5.00;;;17.70;99.90;;;;;;5035213;28;20055;-45
2021/06/12 00:18:16;;;;;;;6.57;5.13;;;17.70;99.90;;;;;;5035117;28;20035;-46
2021/06/12 00:20:42;;;;;;;7.75;5.78;;;17.80;99.90;;;;;;5033030;28;20042;-45
2021/06/12 00:23:07;;;;;;;11.77;5.88;;;17.70;99.90;;;;;;5016450;28;20041;-45
2021/06/12 00:25:34;;;;;;;8.48;4.57;;;17.70;99.90;;;;;;5032877;28;20071;-47
2021/06/12 00:28:02;;;;;;;7.55;4.47;;;17.80;99.90;;;;;;5033036;28;20466;-46
2021/06/12 00:30:29;;;;;;;5.90;3.53;;;;;;;;;;5033398;28;20040;-45
2021/06/12 00:32:55;;;;;;;5.95;4.38;;;17.60;99.90;;;;;;5034730;28;20017;-45
2021/06/12 00:35:21;;;;;;;4.50;3.95;;;17.40;99.90;;;;;;5033240;28;20065;-45
2021/06/12 00:37:47;;;;;;;8.77;4.43;;;17.30;99.90;;;;;;5034617;28;20025;-46
2021/06/12 00:40:15;;;;;;;7.22;4.88;;;17.20;99.90;;;;;;4999893;28;20047;-46
2021/06/12 00:42:42;;;;;;;6.60;3.88;;;17.20;99.90;;;;;;5034662;28;20021;-46
2021/06/12 00:45:14;;;;;;;6.93;4.40;;;17.30;99.90;;;;;;5016392;28;20037;-46
2021/06/12 00:47:40;;;;;;;;;;;17.30;99.90;;;;;;5034329;28;20436;-45
2021/06/12 00:50:08;;;;;;;8.90;5.18;;;;;;;;;;5034368;28;20352;-45
2021/06/12 00:52:36;;;;;;;6.20;4.88;;;17.60;99.90;;;;;;5016371;28;20088;-46
2021/06/12 00:55:02;;;;;;;6.25;5.43;;;17.60;99.90;;;;;;5034552;28;20033;-46
2021/06/12 00:57:29;;;;;;;6.45;5.00;;;17.60;99.90;;;;;;5016055;28;20453;-45
2021/06/12 00:59:55;;;;;;;6.70;5.45;;;17.50;99.90;;;;;;5034329;28;20025;-45
2021/06/12 01:02:21;;;;;;;8.13;5.22;;;17.60;99.90;;;;;;5034426;28;20025;-45
2021/06/12 01:04:47;;;;;;;7.57;5.60;;;17.50;99.90;;;;;;5034400;28;20026;-46
2021/06/12 01:07:13;;;;;;;6.75;5.45;;;17.50;99.90;;;;;;5033908;28;20033;-45
2021/06/12 01:09:39;;;;;;;6.72;5.57;;;17.60;99.90;;;;;;5034274;28;20112;-46
2021/06/12 01:12:20;;;;;;;5.65;5.10;;;17.70;99.90;;;;;;5034192;28;20465;-45
2021/06/12 01:14:56;;;;;;;8.95;5.90;;;17.70;99.90;;;;;;5015647;28;20167;-45
2021/06/12 01:17:28;;;;;;;7.80;5.53;;;17.70;99.90;;;;;;5032087;28;20041;-45
2021/06/12 01:20:21;;;;;;;9.80;5.80;;;17.70;99.90;;;;;;5034004;28;20152;-46
2021/06/12 01:22:47;;;;;;;8.18;5.47;;;17.70;99.90;;;;;;5032295;28;20452;-46
2021/06/12 01:25:40;;;;;;;11.65;5.68;;;17.70;99.90;;;;;;5033822;28;20120;-46
2021/06/12 01:28:43;;;;;;;11.95;5.32;;;17.70;99.90;;;;;;5032492;28;20116;-46
2021/06/12 01:31:11;;;;;;;6.47;5.88;;;17.70;99.90;;;;;;5033798;28;20036;-46
2021/06/12 01:33:41;;;;;;;10.13;6.50;;;17.60;99.90;;;;;;5033674;28;20026;-46
2021/06/12 01:36:08;;;;;;;8.95;6.57;;;17.60;99.90;;;;;;5033619;28;20037;-46
2021/06/12 01:38:38;;;;;;;14.77;7.40;;;17.50;99.90;;;;;;5033704;28;20056;-45
2021/06/12 01:41:08;;;;;;;8.35;6.88;;;17.40;99.90;;;;;;5033543;28;20144;-45
2021/06/12 01:43:36;;;;;;;7.65;6.85;;;17.40;99.90;;;;;;5033511;28;20041;-46
2021/06/12 01:46:05;;;;;;;7.38;6.57;;;17.40;99.90;;;;;;5033422;28;20029;-46
2021/06/12 01:48:32;;;;;;;9.65;6.63;;;17.40;99.90;;;;;;5033621;28;20029;-45
2021/06/12 01:51:00;;;;;;;10.30;6.93;;;17.40;99.90;;;;;;5033500;28;20105;-46
2021/06/12 01:53:30;;;;;;;7.95;6.97;;;17.20;99.90;;;;;;5015263;28;20045;-45
2021/06/12 01:56:03;;;;;;;9.77;6.90;;;17.20;99.90;;;;;;5033296;28;20117;-46
2021/06/12 01:58:29;;;;;;;10.05;7.60;;;17.20;99.90;;;;;;5011754;28;20049;-45
2021/06/12 02:00:56;;;;;;;9.07;6.82;;;17.20;99.90;;;;;;4962737;28;20449;-45
2021/06/12 02:03:23;;;;;;;8.30;7.40;;;17.20;99.90;;;;;;5011191;28;20505;-46
2021/06/12 02:05:50;;;;;;;10.40;7.63;;;17.10;99.90;;;;;;5011044;28;20025;-46
2021/06/12 02:08:16;;;;;;;8.73;7.30;;;17.10;99.90;;;;;;5011529;28;20076;-46
2021/06/12 02:10:45;;;;;;;11.80;7.28;;;17.20;99.90;;;;;;4946981;28;20493;-46
2021/06/12 02:13:11;;;;;;;11.23;8.15;;;17.20;99.90;;;;;;5011406;28;20038;-45
2021/06/12 02:15:38;;;;;;;10.48;7.22;;;17.10;99.90;;;;;;5011322;28;20054;-46
2021/06/12 02:18:08;;;;;;;9.55;7.45;;;17.10;99.90;;;;;;5011553;28;20054;-45
2021/06/12 02:20:36;;;;;;;9.25;6.78;;;16.90;99.90;;;;;;5011395;28;20097;-45
2021/06/12 02:23:05;;;;;;;10.38;7.47;;;16.60;99.90;;;;;;4962584;28;20065;-45
2021/06/12 02:25:31;;;;;;;8.25;7.18;;;16.30;99.90;;;;;;5011277;28;20096;-46
2021/06/12 02:28:03;;;;;;;9.07;7.78;;;16.10;99.90;;;;;;4946459;28;20033;-46
2021/06/12 02:30:32;;;;;;;9.68;7.70;;;15.70;99.90;;;;;;4997013;28;20511;-45
2021/06/12 02:33:03;;;;;;;10.70;8.50;;;15.40;99.90;;;;;;5033078;28;20136;-45
2021/06/12 02:35:30;;;;;;;15.85;8.35;;;15.60;99.90;;;;;;5032796;28;20033;-46
2021/06/12 02:37:58;;;;;;;9.73;8.38;;;15.80;99.90;;;;;;5032894;28;20029;-44
2021/06/12 02:40:24;;;;;;;10.75;8.88;;;16.00;99.90;;;;;;5014929;28;20042;-45
2021/06/12 02:42:49;;;;;;;13.38;9.57;;;16.20;99.90;;;;;;5014722;28;20037;-45
2021/06/12 02:45:16;;;;;;;13.52;9.32;;;16.30;99.90;;;;;;5014646;28;20048;-46
2021/06/12 02:47:49;;;;;;;15.82;8.18;;;;;;;;;;5014452;28;20038;-46
2021/06/12 02:50:16;;;;;;;15.68;8.68;;;16.50;99.90;;;;;;5032885;28;20022;-46
2021/06/12 02:52:44;;;;;;;13.23;8.65;;;16.50;99.90;;;;;;5031150;28;20041;-46
2021/06/12 02:55:12;;;;;;;11.65;7.63;;;;;;;;;;5032956;28;20056;-45
2021/06/12 02:57:39;;;;;;;14.13;7.57;;;;;;;;;;5033097;28;20464;-45
2021/06/12 03:00:08;;;;;;;9.98;7.35;;;;;;;;;;5032880;28;20357;-45
2021/06/12 03:02:38;;;;;;;10.07;7.57;;;16.70;99.90;;;;;;5014485;28;20041;-46
2021/06/12 03:05:05;;;;;;;10.60;7.25;;;16.70;99.90;;;;;;5032915;28;20042;-46
2021/06/12 03:07:34;;;;;;;9.65;7.85;;;16.70;99.90;;;;;;5032852;28;20060;-45
2021/06/12 03:10:00;;;;;;;9.98;7.28;;;16.80;99.90;;;;;;5032779;28;20029;-45
2021/06/12 03:12:27;;;;;;;11.75;7.22;;;16.80;99.90;;;;;;5035278;28;20453;-46
2021/06/12 03:14:56;;;;;;;10.20;6.50;;;16.90;99.90;;;;;;5036362;28;20053;-46
2021/06/12 03:17:22;;;;;;;7.88;6.55;;;16.80;99.90;;;;;;5036104;28;20029;-45
2021/06/12 03:19:49;;;;;;;10.05;6.80;;;16.90;99.90;;;;;;5036350;28;20442;-46
2021/06/12 03:22:15;;;;;;;12.27;7.20;;;17.00;99.90;;;;;;5034989;28;20396;-45
2021/06/12 03:24:42;;;;;;;7.05;5.80;;;17.00;99.90;;;;;;5036282;28;20041;-46
2021/06/12 03:27:08;;;;;;;10.80;6.43;;;17.10;99.90;;;;;;5036205;28;20439;-46
2021/06/12 03:29:35;;;;;;;8.48;5.97;;;;;;;;;;5036018;28;20171;-46
2021/06/12 03:32:01;;;;;;;12.95;7.78;;;17.10;99.90;;;;;;5036816;28;20028;-46
2021/06/12 03:34:28;;;;;;;9.02;6.97;;;17.20;99.90;;;;;;5049336;28;20024;-46
2021/06/12 03:36:55;;;;;;;7.47;5.97;;;17.20;99.90;;;;;;5046796;28;20388;-46
2021/06/12 03:39:21;;;;;;;11.00;6.00;;;17.20;99.90;;;;;;5035802;28;20029;-46
2021/06/12 03:41:47;;;;;;;9.55;6.07;;;17.30;99.90;;;;;;5017672;28;20473;-46
2021/06/12 03:44:14;;;;;;;7.57;6.63;;;17.30;99.90;;;;;;5040213;28;20087;-44
2021/06/12 03:46:46;;;;;;;6.78;5.68;;;17.40;99.90;;;;;;5041616;28;20120;-46
2021/06/12 03:49:12;;;;;;;;;;;17.40;99.90;;;;;;5042567;28;20028;-46
2021/06/12 03:51:39;;;;;;;9.57;6.20;;;17.50;99.90;;;;;;5044085;28;19915;-46
2021/06/12 03:54:07;;;;;;;8.70;5.70;;;17.60;99.90;;;;;;5035415;28;20546;-45
2021/06/12 03:56:35;;;;;;;6.70;5.70;;;17.60;99.90;;;;;;5035581;28;20068;-45
2021/06/12 03:59:01;;;;;;;9.90;5.22;;;17.60;99.90;;;;;;5035577;28;20516;-46
2021/06/12 04:01:27;;;;;;;7.13;4.90;;;17.70;99.90;;;;;;5017245;28;20030;-46
2021/06/12 04:03:53;;;;;;;7.53;4.90;;;17.70;99.90;;;;;;5033176;28;20057;-46
2021/06/12 04:06:20;;;;;;;6.72;5.10;;;17.70;99.90;;;;;;5035447;28;20029;-46
2021/06/12 04:08:48;;;;;;;8.35;5.68;;;17.60;99.90;;;;;;5017004;28;20045;-46
2021/06/12 04:11:14;;;;;;;7.32;5.65;;;17.60;99.90;;;;;;5035371;28;20476;-45
2021/06/12 04:13:40;;;;;;;6.53;4.93;;;17.60;99.90;;;;;;5034893;28;20053;-45
2021/06/12 04:16:08;;;;;;;7.88;5.57;;;17.60;99.90;;;;;;5036033;28;20037;-45
2021/06/12 04:18:34;;;;;;;6.15;5.30;;;17.60;99.90;;;;;;5039558;28;20069;-46
2021/06/12 04:21:01;;;;;;;6.25;5.55;;;17.50;99.90;;;;;;5043917;28;20021;-45
2021/06/12 04:23:27;;;;;;;6.85;5.35;;;17.60;99.90;;;;;;5044234;28;20025;-46
2021/06/12 04:25:53;;;;;;;6.72;5.05;;;17.60;99.90;;;;;;4989523;28;20037;-46
2021/06/12 04:28:19;;;;;;;8.02;5.00;;;17.70;99.90;;;;;;5026564;28;20037;-46
2021/06/12 04:30:45;;;;;;;5.80;4.82;;;17.80;99.90;;;;;;5026812;28;20029;-45
2021/06/12 04:33:11;;;;;;;7.22;5.40;;;17.80;99.90;;;;;;5041959;28;20049;-46
2021/06/12 04:35:36;;;;;;;7.72;5.38;;;17.90;99.90;;;;;;5043574;28;20372;-47
2021/06/12 04:38:03;;;;;;;7.57;5.22;;;18.00;99.90;;;;;;5048076;28;20020;-46
2021/06/12 04:40:31;;;;;;;7.60;5.38;;;18.00;99.90;;;;;;5054577;28;20026;-44
2021/06/12 04:42:57;;;;;;;8.80;5.05;;;18.00;99.90;;;;;;5054664;28;20445;-44
2021/06/12 04:45:23;;;;;;;7.90;5.18;;;18.20;99.90;;;;;;5054475;28;20399;-45
2021/06/12 04:47:49;;;;;;;8.27;5.50;;;18.30;99.90;;;;;;5054559;28;20059;-44
2021/06/12 04:50:16;;;;;;;10.30;5.13;;;18.50;99.90;;;;;;5054420;28;20060;-44
2021/06/12 04:52:42;;;;;;;5.82;4.28;;;18.60;99.90;;;;;;5054537;28;20025;-45
2021/06/12 04:55:09;;;;;;;6.40;4.72;;;18.70;99.90;;;;;;5054381;28;20049;-44
2021/06/12 04:57:36;;;;;;;6.60;4.68;;;18.80;99.90;;;;;;5002864;28;20498;-44
2021/06/12 05:00:13;;;;;;;7.35;4.90;;;18.90;99.90;;;;;;5054410;28;20060;-45
2021/06/12 05:02:39;;;;;;;6.00;5.13;;;19.00;99.90;;;;;;5035790;28;20037;-44
2021/06/12 05:05:10;;;;;;;4.45;3.35;;;19.10;99.90;;;;;;5054256;28;20107;-45
2021/06/12 05:07:36;;;;;;;6.70;4.07;;;19.10;99.90;;;;;;5002645;28;20037;-44
2021/06/12 05:10:03;;;;;;;6.45;4.35;;;;;;;;;;5053975;28;20383;-46
2021/06/12 05:12:29;;;;;;;5.75;4.35;;;19.40;99.90;;;;;;5053730;28;20025;-46
2021/06/12 05:14:58;;;;;;;8.68;4.22;;;19.50;99.90;;;;;;5052012;28;20057;-44
2021/06/12 05:17:24;;;;;;;4.78;4.25;;;19.70;99.90;;;;;;5054206;28;20037;-45
2021/06/12 05:19:49;;;;;;;5.78;4.07;;;19.70;99.90;;;;;;5035482;28;20037;-45
2021/06/12 05:22:15;;;;;;;8.27;4.35;;;19.80;99.90;;;;;;5035585;28;20116;-43
2021/06/12 05:24:41;;;;;;;4.25;3.28;;;19.70;99.90;;;;;;5031502;28;20053;-45
2021/06/12 05:27:07;;;;;;;5.63;3.75;;;19.70;99.90;;;;;;5022727;28;20033;-45
2021/06/12 05:29:33;;;;;;;14.82;3.83;;;19.80;99.90;;;;;;5021106;28;20048;-44
2021/06/12 05:31:59;;;;;;;7.78;4.28;;;19.90;99.90;;;;;;5022306;28;20350;-44
2021/06/12 05:34:25;;;;;;;6.80;4.03;;;20.00;99.90;;;;;;5016367;28;20040;-45
2021/06/12 05:36:51;;;;;;;6.57;4.15;;;20.00;99.90;;;;;;5021582;28;20025;-44
2021/06/12 05:39:16;;;;;;;4.45;2.92;;;20.00;99.90;;;;;;5021788;28;20096;-44
2021/06/12 05:41:42;;;;;;;3.85;3.45;;;20.00;99.90;;;;;;5019908;28;20113;-43
2021/06/12 05:44:08;;;;;;;7.70;4.10;;;20.00;99.90;;;;;;5021514;28;20052;-44
2021/06/12 05:46:34;;;;;;;3.67;3.15;;;20.00;99.90;;;;;;4989961;28;20030;-45
2021/06/12 05:49:00;;;;;;;4.50;3.25;;;20.10;99.90;;;;;;5017377;28;20076;-45
2021/06/12 05:51:28;;;;;;;7.30;3.67;;;20.20;99.90;;;;;;5021753;28;20504;-44
2021/06/12 05:53:54;;;;;;;4.95;3.63;;;20.20;99.90;;;;;;5022016;28;20701;-42
2021/06/12 05:56:20;;;;;;;5.47;3.25;;;20.30;99.90;;;;;;5009012;28;20030;-45
2021/06/12 05:58:46;;;;;;;7.18;3.58;;;20.40;99.90;;;;;;5041710;28;20105;-45
2021/06/12 06:01:12;;;;;;;7.55;3.95;;;20.50;99.90;;;;;;5041272;28;20029;-45
2021/06/12 06:03:38;;;;;;;6.68;3.90;;;20.40;99.90;;;;;;5024879;28;20136;-43
2021/06/12 06:06:06;;;;;;;6.97;4.13;;;20.60;99.90;;;;;;5041153;28;20567;-45
2021/06/12 06:08:32;;;;;;;6.60;4.13;;;20.60;99.90;;;;;;5024777;28;20041;-44
2021/06/12 06:10:58;;;;;;;7.95;3.40;;;20.60;99.90;;;;;;5043298;28;20338;-43
2021/06/12 06:13:24;;;;;;;8.68;4.10;;;20.40;99.90;;;;;;5039386;28;20033;-45
2021/06/12 06:15:51;;;;;;;3.17;2.35;;;20.60;99.90;;;;;;5043073;28;20025;-44
2021/06/12 06:18:17;;;;;;;7.80;4.10;;;20.60;99.90;;;;;;5043104;28;20021;-45
2021/06/12 06:20:44;;;;;;;6.38;3.88;;;20.80;99.90;;;;;;5041591;28;20419;-45
2021/06/12 06:23:10;;;;;;;6.68;3.80;;;20.90;99.90;;;;;;5043108;28;20024;-45
2021/06/12 06:25:36;;;;;;;7.40;4.10;;;21.00;99.90;;;;;;5042901;28;20042;-44
2021/06/12 06:28:02;;;;;;;7.28;5.18;;;21.10;99.90;;;;;;5041914;28;20108;-45
2021/06/12 06:30:27;;;;;;;5.80;4.40;;;21.10;99.90;;;;;;5020958;28;20030;-46
2021/06/12 06:32:53;;;;;;;7.65;4.43;;;21.20;99.90;;;;;;5003851;28;20069;-45
2021/06/12 06:35:19;;;;;;;9.38;4.38;;;21.20;99.90;;;;;;5021506;28;20033;-45
2021/06/12 06:37:45;;;;;;;5.60;4.20;;;;;;;;;;4989747;28;20173;-45
2021/06/12 06:40:12;;;;;;;7.57;4.10;;;21.40;99.90;;;;;;4995775;28;20037;-45
2021/06/12 06:42:38;;;;;;;6.57;4.25;;;21.30;99.90;;;;;;4989878;28;20038;-45
2021/06/12 06:45:04;;;;;;;6.65;4.60;;;21.40;99.90;;;;;;4961656;28;20044;-46
2021/06/12 06:47:30;;;;;;;6.45;4.43;;;21.60;99.90;;;;;;4999225;28;20038;-44
2021/06/12 06:49:56;;;;;;;10.27;5.10;;;21.50;99.90;;;;;;5034615;28;20133;-45
2021/06/12 06:52:22;;;;;;;9.63;4.20;;;21.70;99.90;;;;;;5034869;28;20156;-46
2021/06/12 06:54:48;;;;;;;4.57;4.03;;;21.60;99.90;;;;;;5034620;28;20026;-45
2021/06/12 06:57:14;;;;;;;6.65;4.15;;;21.80;99.90;;;;;;5001925;28;20044;-45
2021/06/12 06:59:39;;;;;;;7.85;4.25;;;21.90;99.90;;;;;;4969444;28;20063;-46
2021/06/12 07:02:05;;;;;;;4.75;4.28;;;22.00;99.90;;;;;;5051191;28;20033;-45
2021/06/12 07:04:36;;;;;;;4.88;3.30;;;22.20;99.90;;;;;;5056540;28;20029;-46
2021/06/12 07:07:04;;;;;;;4.30;3.90;;;22.10;99.90;;;;;;5055844;28;20491;-45
2021/06/12 07:09:30;;;;;;;7.70;4.40;;;22.20;99.90;;;;;;5005251;28;20083;-45
2021/06/12 07:11:58;;;;;;;7.82;3.67;;;22.20;99.90;;;;;;5037898;28;20110;-45
2021/06/12 07:14:27;;;;;;;5.00;4.20;;;22.40;99.90;;;;;;5056207;28;20095;-46
2021/06/12 07:16:53;;;;;;;5.75;3.78;;;22.40;99.90;;;;;;5037973;28;20049;-46
2021/06/12 07:19:22;;;;;;;7.05;3.92;;;22.40;99.90;;;;;;5044495;28;20057;-45
2021/06/12 07:21:48;;;;;;;7.28;4.18;;;22.50;99.90;;;;;;5019517;28;20396;-45
2021/06/12 07:24:14;;;;;;;5.03;4.10;;;22.70;99.90;;;;;;5014281;28;20124;-45
2021/06/12 07:26:42;;;;;;;5.72;4.32;;;22.80;99.90;;;;;;5016942;28;20457;-45
2021/06/12 07:29:10;;;;;;;5.82;4.13;;;22.90;99.90;;;;;;5021887;28;20050;-46
2021/06/12 07:31:38;;;;;;;5.85;3.60;;;23.10;99.90;;;;;;5030322;28;20037;-45
2021/06/12 07:34:04;;;;;;;7.32;4.22;;;23.20;99.90;;;;;;5000917;28;20092;-46
2021/06/12 07:36:30;;;;;;;7.95;4.10;;;23.10;99.90;;;;;;5033867;28;20033;-47
2021/06/12 07:38:56;;;;;;;6.13;4.03;;;23.20;99.90;;;;;;5033768;28;20136;-45
2021/06/12 07:41:22;;;;;;;7.18;3.15;;;23.30;99.70;;;;;;5001080;28;20037;-45
2021/06/12 07:43:48;;;;;;;7.10;4.07;;;23.40;99.00;;;;;;5017165;28;20447;-45
2021/06/12 07:46:14;;;;;;;5.05;3.55;;;23.50;98.50;;;;;;5033782;28;20037;-44
2021/06/12 07:48:40;;;;;;;7.32;4.13;;;23.50;99.10;;;;;;4968015;28;20038;-45
2021/06/12 07:51:07;;;;;;;4.15;3.75;;;23.50;99.60;;;;;;5000659;28;20512;-44
2021/06/12 07:53:33;;;;;;;6.68;3.58;;;23.40;99.30;;;;;;5033649;28;20029;-45
2021/06/12 07:55:59;;;;;;;9.52;4.20;;;23.60;98.80;;;;;;5017033;28;20035;-46
2021/06/12 07:58:25;;;;;;;5.32;3.20;;;23.60;98.30;;;;;;5055158;28;20037;-44
2021/06/12 08:00:51;;;;;;;5.82;3.55;;;23.50;98.80;;;;;;5055739;28;20361;-44
2021/06/12 08:03:17;;;;;;;6.15;3.80;;;23.80;98.40;;;;;;5053832;28;20075;-45
2021/06/12 08:05:43;;;;;;;7.75;4.47;;;24.10;99.00;;;;;;5035976;28;20280;-46
2021/06/12 08:08:09;;;;;;;6.72;4.13;;;24.10;98.10;;;;;;5038715;28;20088;-45
2021/06/12 08:10:34;;;;;;;8.18;4.05;;;24.10;98.20;;;;;;5023516;28;20033;-46
2021/06/12 08:13:01;;;;;;;6.80;4.13;;;24.10;98.80;;;;;;5025658;28;20038;-45
2021/06/12 08:15:27;;;;;;;7.88;4.40;;;24.10;98.00;;;;;;5046613;28;20057;-46
2021/06/12 08:17:52;;;;;;;5.90;4.35;;;24.00;97.60;;;;;;5021787;28;20033;-47
2021/06/12 08:20:19;;;;;;;6.07;4.05;;;24.10;97.60;;;;;;5039318;28;20128;-46
2021/06/12 08:22:45;;;;;;;4.70;3.83;;;24.40;98.40;;;;;;5042659;28;20074;-47
2021/06/12 08:25:11;;;;;;;6.28;3.63;;;24.50;98.00;;;;;;4962402;28;20439;-46
2021/06/12 08:27:37;;;;;;;7.88;3.83;;;24.60;97.80;;;;;;5043326;28;20084;-45
2021/06/12 08:30:05;;;;;;;16.58;4.93;;;24.40;97.70;;;;;;5043552;28;20028;-46
2021/06/12 08:32:31;;;;;;;5.70;3.80;;;;;;;;;;4991901;28;20049;-46
2021/06/12 08:34:57;;;;;;;6.82;3.70;;;;;;;;;;5042199;28;20048;-46
2021/06/12 08:37:24;;;;;;;5.00;4.13;;;;;;;;;;5048165;28;20453;-45
2021/06/12 08:39:52;;;;;;;6.18;3.83;;;25.20;99.40;;;;;;5040413;28;20021;-46
2021/06/12 08:42:18;;;;;;;3.75;3.17;;;25.10;96.60;;;;;;5010423;28;20045;-45
2021/06/12 08:44:44;;;;;;;8.77;3.65;;;24.90;96.40;;;;;;5045621;28;20036;-45
2021/06/12 08:47:11;;;;;;;5.22;3.58;;;25.20;96.80;;;;;;5022286;28;20033;-46
2021/06/12 08:49:40;;;;;;;6.82;4.53;;;25.10;99.90;;;;;;5042344;28;20030;-45
2021/06/12 08:52:06;;;;;;;8.80;3.78;;;25.20;99.90;;;;;;5034616;28;20030;-46
2021/06/12 08:54:33;;;;;;;7.10;4.00;;;25.30;99.70;;;;;;4967329;28;20484;-45
2021/06/12 08:56:59;;;;;;;5.97;3.78;;;25.30;97.90;;;;;;5034438;28;20021;-46
2021/06/12 08:59:27;;;;;;;4.68;3.65;;;;;;;;;;4983623;28;20084;-47
2021/06/12 09:01:53;;;;;;;5.40;3.53;;;;;;;;;;5034362;28;20033;-47
2021/06/12 09:04:27;;;;;;;5.85;3.60;;;;;;;;;;5035184;28;20063;-46
2021/06/12 09:07:11;;;;;;;5.63;3.80;;;;;;;;;;5037650;28;20032;-46
2021/06/12 09:09:41;;;;;;;7.20;4.00;;;25.60;96.60;;;;;;5044988;28;20104;-46
2021/06/12 09:12:07;;;;;;;5.82;3.40;;;;;;;;;;5041487;28;20064;-45
2021/06/12 09:14:33;;;;;;;3.90;3.05;;;25.70;96.80;;;;;;5037941;28;20053;-45
2021/06/12 09:16:59;;;;;;;3.97;3.28;;;25.60;96.30;;;;;;5043113;28;20087;-45
2021/06/12 09:19:25;;;;;;;8.23;3.83;;;25.80;97.60;;;;;;5039005;28;20037;-45
2021/06/12 09:21:59;;;;;;;5.35;3.38;;;25.60;96.00;;;;;;5015686;28;20041;-49
2021/06/12 09:24:36;;;;;;;8.93;4.55;;;26.10;99.90;;;;;;4965516;28;20670;-50
2021/06/12 09:27:11;;;;;;;5.82;4.00;;;26.10;98.20;;;;;;5033538;28;20104;-47
2021/06/12 09:29:41;;;;;;;5.65;3.72;;;26.20;99.90;;;;;;5019505;28;20064;-45
2021/06/12 09:32:16;;;;;;;8.50;3.80;;;26.20;99.90;;;;;;5040660;28;20052;-49
2021/06/12 09:34:42;;;;;;;7.72;3.70;;;26.10;99.90;;;;;;5033755;28;20033;-46
2021/06/12 09:37:10;;;;;;;8.02;3.50;;;26.20;99.80;;;;;;5039381;28;20030;-46
2021/06/12 09:39:37;;;;;;;7.00;3.97;;;;;;;;;;5022157;28;20082;-46
2021/06/12 09:42:04;;;;;;;5.43;3.70;;;26.30;94.60;;;;;;5018545;28;20046;-47
2021/06/12 09:44:40;;;;;;;5.25;3.72;;;26.20;94.90;;;;;;4996921;28;20052;-46
2021/06/12 09:47:23;;;;;;;5.82;3.80;;;26.30;94.20;;;;;;5011679;28;20033;-47
2021/06/12 09:49:49;;;;;;;6.13;3.45;;;26.40;94.40;;;;;;5011485;28;20512;-47
2021/06/12 09:52:18;;;;;;;4.60;3.35;;;26.40;95.30;;;;;;4995085;28;20125;-47
2021/06/12 09:54:50;;;;;;;7.78;3.72;;;26.60;94.90;;;;;;5011631;28;20049;-46
2021/06/12 09:57:19;;;;;;;3.90;3.40;;;26.70;94.60;;;;;;5011238;28;20029;-46
2021/06/12 09:59:54;;;;;;;7.82;3.80;;;26.50;93.90;;;;;;5013732;28;20366;-46
2021/06/12 10:02:41;;;;;;;8.00;4.00;;;26.70;94.80;;;;;;4978607;28;20050;-47
2021/06/12 10:05:09;;;;;;;3.42;3.13;;;26.60;93.10;;;;;;5011618;28;20137;-47
2021/06/12 10:07:35;;;;;;;3.80;3.10;;;26.60;93.70;;;;;;4978297;28;20046;-46
2021/06/12 10:10:06;;;;;;;4.45;3.10;;;26.90;93.70;;;;;;5017425;28;20038;-47
2021/06/12 10:12:33;;;;;;;4.53;3.15;;;27.00;93.10;;;;;;5014921;28;20473;-47
2021/06/12 10:15:00;;;;;;;4.05;2.85;;;26.70;93.60;;;;;;5033342;28;20103;-46
2021/06/12 10:17:28;;;;;;;6.28;3.17;;;26.80;93.60;;;;;;5035139;28;20049;-47
2021/06/12 10:19:56;;;;;;;5.20;3.50;;;27.10;93.20;;;;;;5051468;28;20090;-46
2021/06/12 10:22:22;;;;;;;6.03;3.20;;;27.10;93.70;;;;;;5057724;28;20025;-47
2021/06/12 10:24:49;;;;;;;5.75;3.40;;;27.40;94.90;;;;;;5047743;28;20169;-47
2021/06/12 10:27:15;;;;;;;4.82;3.60;;;27.50;94.00;;;;;;5037250;28;20095;-46
2021/06/12 10:29:43;;;;;;;6.07;3.35;;;27.80;93.00;;;;;;5056117;28;20116;-47
2021/06/12 10:32:11;;;;;;;5.90;2.85;;;28.00;93.20;;;;;;5052193;28;20052;-47
2021/06/12 10:34:39;;;;;;;6.50;3.30;;;27.80;92.90;;;;;;5057164;28;20028;-47
2021/06/12 10:37:07;;;;;;;5.60;2.97;;;28.10;91.60;;;;;;5057124;28;20549;-46
2021/06/12 10:39:35;;;;;;;4.75;2.80;;;27.90;92.80;;;;;;5057085;28;20032;-47
2021/06/12 10:42:27;;;;;;;6.38;3.50;;;28.00;91.90;;;;;;5057164;28;20029;-47
2021/06/12 10:44:53;;;;;;;;;;;;;;;;;;5019523;28;20060;-46
2021/06/12 10:47:42;;;;;;;6.53;3.33;;;28.10;91.60;;;;;;5056722;28;19904;-46
2021/06/12 10:50:26;;;;;;;5.00;3.17;;;28.20;92.20;;;;;;5054912;28;20063;-47
2021/06/12 10:53:14;;;;;;;4.15;2.90;;;27.80;92.50;;;;;;5057039;28;20021;-48
2021/06/12 10:55:46;;;;;;;4.43;2.95;;;27.90;93.50;;;;;;5056895;28;20052;-47
2021/06/12 10:58:33;;;;;;;5.25;3.40;;;27.60;92.20;;;;;;5038263;28;20044;-47
2021/06/12 11:04:16;;;;;;;3.40;3.10;;;27.90;92.90;;;;;;5056588;28;20112;-47
2021/06/12 11:09:20;;;;;;;4.53;3.25;;;28.40;92.30;;;;;;5056549;28;20127;-47
2021/06/12 11:11:53;;;;;;;4.13;3.15;;;28.20;91.50;;;;;;5056613;28;20032;-46
2021/06/12 11:14:24;;;;;;;3.40;3.10;;;28.30;92.30;;;;;;5056506;28;20045;-46
2021/06/12 11:17:09;;;;;;;5.38;3.03;;;28.40;92.50;;;;;;5056296;28;20090;-47
2021/06/12 11:19:40;;;;;;;8.57;3.55;;;28.40;92.40;;;;;;5056268;28;20033;-46
2021/06/12 11:22:24;;;;;;;;;;;28.70;92.60;;;;;;5057062;28;20033;-47
2021/06/12 11:24:52;;;;;;;6.90;2.90;;;28.80;92.50;;;;;;5056174;28;19916;-47
2021/06/12 11:27:34;;;;;;;5.50;4.05;;;28.90;91.60;;;;;;5056271;28;20029;-47
2021/06/12 11:30:19;;;;;;;3.58;3.10;;;28.80;89.90;;;;;;5054758;28;20036;-46
2021/06/12 11:32:47;;;;;;;3.38;2.80;;;29.10;91.30;;;;;;5055383;28;20037;-46
2021/06/12 11:35:50;;;;;;;7.63;5.20;;;29.00;91.30;;;;;;5056111;28;20032;-46
2021/06/12 11:38:34;;;;;;;3.95;3.03;;;29.00;91.60;;;;;;5056059;28;20079;-46
2021/06/12 11:41:04;;;;;;;4.63;2.90;;;28.50;92.00;;;;;;5055614;28;20353;-47
2021/06/12 11:43:39;;;;;;;5.10;3.15;;;28.60;93.00;;;;;;5055830;28;20452;-47
2021/06/12 11:46:12;;;;;;;4.70;2.95;;;28.40;91.60;;;;;;5055806;28;20068;-47
2021/06/12 11:48:46;;;;;;;3.67;2.88;;;28.40;92.00;;;;;;5055722;28;20037;-47
2021/06/12 11:51:19;;;;;;;4.32;3.38;;;28.70;91.80;;;;;;5055903;28;20456;-47
2021/06/12 11:54:05;;;;;;;4.28;3.60;;;29.00;90.70;;;;;;5036400;28;20048;-47
2021/06/12 11:56:53;;;;;;;5.95;3.40;;;29.40;91.10;;;;;;5055207;28;20383;-46
2021/06/12 11:59:20;;;;;;;7.10;3.40;;;;;;;;;;5055478;28;20043;-47
2021/06/12 12:02:01;;;;;;;3.63;2.40;;;29.60;91.80;;;;;;5051727;28;20032;-47
2021/06/12 12:04:39;;;;;;;4.35;2.90;;;29.90;90.30;;;;;;5055100;28;20041;-47
2021/06/12 12:07:10;;;;;;;4.68;2.70;;;29.80;90.00;;;;;;5054391;28;20033;-46
2021/06/12 12:09:40;;;;;;;4.22;3.20;;;29.20;90.30;;;;;;5036507;28;20464;-47
2021/06/12 12:12:08;;;;;;;5.45;3.00;;;29.40;90.20;;;;;;5054775;28;20043;-47
2021/06/12 12:14:39;;;;;;;4.35;2.50;;;29.50;91.10;;;;;;5003435;28;20087;-46
2021/06/12 12:17:07;;;;;;;5.75;3.72;;;28.70;90.10;;;;;;5055221;28;20021;-47
2021/06/12 12:19:34;;;;;;;3.67;2.80;;;29.20;91.50;;;;;;5055156;28;20037;-46
2021/06/12 12:22:02;;;;;;;4.75;2.80;;;29.30;90.20;;;;;;5052993;28;20123;-47
2021/06/12 12:24:32;;;;;;;3.92;2.88;;;30.00;90.50;;;;;;5036082;28;20131;-47
2021/06/12 12:27:08;;;;;;;4.93;2.42;;;30.00;90.40;;;;;;5054995;28;20032;-46
2021/06/12 12:29:38;;;;;;;3.97;2.80;;;29.50;86.30;;;;;;5054836;28;20463;-47
2021/06/12 12:32:05;;;;;;;3.42;3.00;;;28.80;89.30;;;;;;5055084;28;20450;-47
2021/06/12 12:34:37;;;;;;;3.80;2.33;;;29.00;91.10;;;;;;5003089;28;20029;-47
2021/06/12 12:37:07;;;;;;;3.67;2.35;;;29.00;90.20;;;;;;5054846;28;20021;-47
2021/06/12 12:39:39;;;;;;;5.00;2.60;;;29.20;90.10;;;;;;5052639;28;20073;-47
2021/06/12 12:42:06;;;;;;;5.00;2.20;;;29.30;87.10;;;;;;5019579;28;20033;-47
2021/06/12 12:44:32;;;;;;;4.07;2.90;;;29.90;87.70;;;;;;5051504;28;20399;-47
2021/06/12 12:46:58;;;;;;;3.65;2.67;;;30.10;90.20;;;;;;5052581;28;20037;-47
2021/06/12 12:49:31;;;;;;;4.93;3.53;;;29.70;88.40;;;;;;5054636;28;20021;-46
2021/06/12 12:52:00;;;;;;;4.10;2.35;;;30.20;88.10;;;;;;5052558;28;20114;-47
2021/06/12 12:54:32;;;;;;;8.32;2.42;;;29.60;91.30;;;;;;5052429;28;20122;-46
2021/06/12 12:57:04;;;;;;;6.30;2.50;;;29.50;86.70;;;;;;5054200;28;20487;-47
2021/06/12 12:59:38;;;;;;;3.88;2.80;;;29.50;89.20;;;;;;4999178;28;20048;-48
2021/06/12 13:02:08;;;;;;;3.55;2.65;;;29.80;88.90;;;;;;5034482;28;20033;-47
2021/06/12 13:04:45;;;;;;;4.15;2.30;;;29.70;87.70;;;;;;5011991;28;20041;-46
2021/06/12 13:07:32;;;;;;;3.42;2.50;;;29.50;89.00;;;;;;4962674;28;20060;-46